Time;durP1;ratioP1;P1;durP2;ratioP2;P2;SDS_P1;SDS_P2;PMS_P1;PMS_P2;Temp;Humidity;BMP_temperature;BMP_pressure;BME280_temperature;BME280_humidity;BME280_pressure;Samples;Min_cycle;Max_cycle;Signal;HPM_P1;HPM_P2
2022/10/23 00:02:18;;;;;;;3.13;0.63;;;;;;;;;;5010251;28;20396;-74
2022/10/23 00:04:51;;;;;;;2.67;0.47;;;;;;;;;;5009010;28;20050;-73
2022/10/23 00:07:22;;;;;;;1.45;0.70;;;;;;;;;;5008857;28;20054;-75
2022/10/23 00:09:51;;;;;;;3.13;0.90;;;;;;;;;;5010390;28;20432;-73
2022/10/23 00:12:21;;;;;;;1.17;0.70;;;;;;;;;;5009628;28;20049;-73
2022/10/23 00:14:51;;;;;;;2.15;0.93;;;;;;;;;;5009697;28;21193;-72
2022/10/23 00:17:23;;;;;;;1.95;0.68;;;;;;;;;;5014463;28;20056;-75
2022/10/23 00:19:53;;;;;;;3.90;1.00;;;;;;;;;;5016143;28;20053;-74
2022/10/23 00:22:22;;;;;;;2.17;0.65;;;;;;;;;;5008687;28;20520;-74
2022/10/23 00:24:53;;;;;;;3.50;0.68;;;;;;;;;;5009220;28;20057;-75
2022/10/23 00:27:22;;;;;;;3.25;0.70;;;;;;;;;;5007729;28;20065;-72
2022/10/23 00:29:52;;;;;;;2.95;0.80;;;;;;;;;;5023401;28;20057;-73
2022/10/23 00:32:22;;;;;;;4.38;0.70;;;;;;;;;;5009946;28;20056;-73
2022/10/23 00:34:52;;;;;;;3.33;0.63;;;;;;;;;;5009595;28;20056;-73
2022/10/23 00:37:22;;;;;;;3.80;0.70;;;;;;;;;;5007729;28;20061;-73
2022/10/23 00:39:52;;;;;;;3.55;0.80;;;;;;;;;;5008684;28;20053;-74
2022/10/23 00:42:22;;;;;;;4.72;0.98;;;;;;;;;;5009057;28;20052;-74
2022/10/23 00:44:52;;;;;;;3.00;1.15;;;;;;;;;;5009576;28;20042;-74
2022/10/23 00:47:21;;;;;;;3.97;1.10;;;;;;;;;;5009078;28;20057;-73
2022/10/23 00:49:51;;;;;;;6.10;1.10;;;;;;;;;;5009256;28;20098;-73
2022/10/23 00:52:21;;;;;;;3.15;0.90;;;;;;;;;;5009284;28;20046;-74
2022/10/23 00:54:51;;;;;;;2.22;0.85;;;;;;;;;;5008751;28;20050;-74
2022/10/23 00:57:21;;;;;;;2.80;0.60;;;;;;;;;;5024038;28;20053;-73
2022/10/23 00:59:52;;;;;;;5.93;0.82;;;;;;;;;;5007525;28;20058;-75
2022/10/23 01:02:22;;;;;;;1.90;0.43;;;;;;;;;;5009087;28;20054;-75
2022/10/23 01:04:52;;;;;;;2.22;0.65;;;;;;;;;;5009215;28;20046;-74
2022/10/23 01:07:28;;;;;;;1.05;0.40;;;;;;;;;;5007049;28;20504;-74
2022/10/23 01:10:23;;;;;;;;;;;;;;;;;;5007146;28;20053;-73
2022/10/23 01:12:56;;;;;;;0.57;0.30;;;;;;;;;;5005447;28;20308;-75
2022/10/23 01:15:58;;;;;;;2.38;0.80;;;;;;;;;;5006684;28;20053;-76
2022/10/23 01:18:44;;;;;;;1.65;0.80;;;;;;;;;;5006820;28;20046;-74
2022/10/23 01:22:07;;;;;;;3.40;0.57;;;;;;;;;;5019432;28;20053;-74
2022/10/23 01:24:39;;;;;;;1.13;0.77;;;;;;;;;;4971944;28;20528;-74
2022/10/23 01:27:30;;;;;;;3.67;0.73;;;;;;;;;;5002168;28;20418;-73
2022/10/23 01:30:08;;;;;;;2.28;0.73;;;;;;;;;;4988985;28;20050;-73
2022/10/23 01:33:06;;;;;;;2.40;0.77;;;;;;;;;;4988134;28;20509;-76
2022/10/23 01:35:51;;;;;;;3.83;0.70;;;;;;;;;;4988841;28;20050;-73
2022/10/23 01:38:42;;;;;;;5.07;0.93;;;;;;;;;;4989540;28;20425;-74
2022/10/23 01:41:31;;;;;;;3.38;0.82;;;;;;;;;;5004562;28;20061;-75
2022/10/23 01:44:18;;;;;;;1.67;0.60;;;;;;;;;;4988017;28;20058;-74
2022/10/23 01:46:50;;;;;;;2.83;0.77;;;;;;;;;;4997822;28;20054;-73
2022/10/23 01:49:23;;;;;;;3.25;1.10;;;;;;;;;;5008177;28;20497;-74
2022/10/23 01:52:01;;;;;;;3.65;0.80;;;;;;;;;;5006782;28;20061;-74
2022/10/23 01:54:35;;;;;;;1.85;0.68;;;;;;;;;;5000462;28;20049;-75
2022/10/23 01:57:13;;;;;;;6.75;1.00;;;;;;;;;;4990176;28;20542;-75
2022/10/23 01:59:48;;;;;;;2.45;1.00;;;;;;;;;;4989965;28;20065;-74
2022/10/23 02:02:21;;;;;;;1.00;0.65;;;;;;;;;;5005392;28;20050;-74
2022/10/23 02:05:09;;;;;;;6.15;0.80;;;;;;;;;;4996143;28;20069;-73
2022/10/23 02:07:39;;;;;;;3.42;0.82;;;;;;;;;;4986897;28;20429;-73
2022/10/23 02:10:12;;;;;;;4.22;0.73;;;;;;;;;;5004657;28;20042;-73
2022/10/23 02:12:54;;;;;;;3.45;1.42;;;;;;;;;;4989828;28;20056;-74
2022/10/23 02:15:40;;;;;;;1.45;0.60;;;;;;;;;;5005160;28;20064;-72
2022/10/23 02:18:20;;;;;;;2.22;0.93;;;;;;;;;;5004127;28;20045;-75
2022/10/23 02:21:20;;;;;;;3.40;0.70;;;;;;;;;;4984315;28;20050;-74
2022/10/23 02:24:14;;;;;;;7.28;0.80;;;;;;;;;;5004265;28;20049;-75
2022/10/23 02:26:54;;;;;;;5.13;0.77;;;;;;;;;;5007675;28;20404;-74
2022/10/23 02:29:30;;;;;;;5.85;1.00;;;;;;;;;;4989876;28;20521;-75
2022/10/23 02:32:01;;;;;;;2.33;0.80;;;;;;;;;;4990228;28;20516;-74
2022/10/23 02:34:32;;;;;;;3.90;0.80;;;;;;;;;;5007174;28;20050;-73
2022/10/23 02:37:02;;;;;;;2.33;0.85;;;;;;;;;;5006158;28;20046;-75
2022/10/23 02:39:34;;;;;;;0.95;0.60;;;;;;;;;;4988934;28;20046;-75
2022/10/23 02:42:22;;;;;;;5.60;1.10;;;;;;;;;;4989770;28;20061;-73
2022/10/23 02:45:15;;;;;;;0.70;0.70;;;;;;;;;;4985505;28;20046;-72
2022/10/23 02:48:24;;;;;;;1.95;0.70;;;;;;;;;;5009022;28;20053;-72
2022/10/23 02:51:14;;;;;;;3.72;0.60;;;;;;;;;;4969839;28;20057;-74
2022/10/23 02:54:06;;;;;;;3.50;1.10;;;;;;;;;;5001776;28;20061;-73
2022/10/23 02:56:44;;;;;;;1.20;0.88;;;;;;;;;;4989080;28;20046;-75
2022/10/23 02:59:36;;;;;;;1.35;0.70;;;;;;;;;;4989273;28;20513;-72
2022/10/23 03:02:28;;;;;;;1.83;0.55;;;;;;;;;;4989236;28;20049;-74
2022/10/23 03:05:01;;;;;;;2.88;0.55;;;;;;;;;;4988081;28;20054;-74
2022/10/23 03:07:33;;;;;;;1.60;0.73;;;;;;;;;;5007129;28;20393;-74
2022/10/23 03:10:07;;;;;;;1.92;0.57;;;;;;;;;;5007548;28;20045;-74
2022/10/23 03:12:38;;;;;;;2.15;0.50;;;;;;;;;;5006816;28;20053;-75
2022/10/23 03:15:11;;;;;;;3.42;0.60;;;;;;;;;;4989393;28;20050;-73
2022/10/23 03:17:41;;;;;;;3.90;0.80;;;;;;;;;;4988723;28;20046;-74
2022/10/23 03:20:11;;;;;;;2.13;1.00;;;;;;;;;;5010335;28;20054;-73
2022/10/23 03:22:44;;;;;;;0.55;0.43;;;;;;;;;;4992633;28;20421;-73
2022/10/23 03:25:14;;;;;;;6.93;0.98;;;;;;;;;;5006781;28;20042;-74
2022/10/23 03:27:45;;;;;;;3.72;0.90;;;;;;;;;;4989034;28;20041;-73
2022/10/23 03:30:17;;;;;;;0.98;0.40;;;;;;;;;;4989505;28;20397;-72
2022/10/23 03:32:51;;;;;;;0.40;0.35;;;;;;;;;;4989241;28;20060;-74
2022/10/23 03:35:21;;;;;;;1.15;0.63;;;;;;;;;;5006712;28;20057;-74
2022/10/23 03:37:53;;;;;;;3.10;0.98;;;;;;;;;;4988629;28;20057;-73
2022/10/23 03:40:24;;;;;;;3.92;0.90;;;;;;;;;;4988511;28;20721;-73
2022/10/23 03:42:55;;;;;;;6.70;0.70;;;;;;;;;;5006376;28;20420;-73
2022/10/23 03:45:25;;;;;;;2.70;0.65;;;;;;;;;;5004483;28;20054;-74
2022/10/23 03:47:55;;;;;;;2.22;0.60;;;;;;;;;;5004936;28;20057;-74
2022/10/23 03:50:25;;;;;;;6.72;0.60;;;;;;;;;;4987499;28;20437;-74
2022/10/23 03:52:54;;;;;;;0.60;0.60;;;;;;;;;;5005407;28;20053;-73
2022/10/23 03:55:25;;;;;;;3.13;0.90;;;;;;;;;;5003399;28;20054;-73
2022/10/23 03:57:56;;;;;;;4.07;0.50;;;;;;;;;;5004255;28;20042;-73
2022/10/23 04:00:25;;;;;;;1.25;0.60;;;;;;;;;;4986145;28;20057;-74
2022/10/23 04:02:55;;;;;;;4.00;0.73;;;;;;;;;;5005626;28;20052;-73
2022/10/23 04:05:25;;;;;;;1.85;0.50;;;;;;;;;;4989205;28;20050;-74
2022/10/23 04:07:56;;;;;;;0.70;0.68;;;;;;;;;;4988846;28;20054;-73
2022/10/23 04:10:27;;;;;;;1.13;0.60;;;;;;;;;;5006219;28;20057;-74
2022/10/23 04:12:56;;;;;;;2.85;0.50;;;;;;;;;;5005990;28;20393;-73
2022/10/23 04:15:28;;;;;;;1.50;0.73;;;;;;;;;;4988997;28;20050;-74
2022/10/23 04:17:58;;;;;;;3.03;0.60;;;;;;;;;;5005984;28;20065;-74
2022/10/23 04:20:31;;;;;;;0.63;0.52;;;;;;;;;;4988633;28;20054;-72
2022/10/23 04:23:02;;;;;;;3.33;0.73;;;;;;;;;;4989720;28;20062;-74
2022/10/23 04:25:34;;;;;;;2.00;0.45;;;;;;;;;;4988691;28;20042;-73
2022/10/23 04:28:05;;;;;;;1.63;0.63;;;;;;;;;;5006838;28;20409;-72
2022/10/23 04:30:38;;;;;;;1.10;0.43;;;;;;;;;;4990259;28;20061;-73
2022/10/23 04:33:11;;;;;;;1.05;0.82;;;;;;;;;;5009033;28;20076;-73
2022/10/23 04:35:41;;;;;;;0.90;0.50;;;;;;;;;;4992114;28;20046;-73
2022/10/23 04:38:11;;;;;;;1.73;0.60;;;;;;;;;;4992231;28;20054;-74
2022/10/23 04:40:42;;;;;;;2.60;0.95;;;;;;;;;;5007852;28;20066;-73
2022/10/23 04:43:15;;;;;;;1.05;0.68;;;;;;;;;;4991797;28;20054;-73
2022/10/23 04:45:47;;;;;;;3.05;0.82;;;;;;;;;;4991623;28;20061;-73
2022/10/23 04:48:17;;;;;;;1.33;0.70;;;;;;;;;;4992450;28;20042;-73
2022/10/23 04:51:06;;;;;;;1.80;0.77;;;;;;;;;;5013508;28;20053;-75
2022/10/23 04:53:56;;;;;;;1.27;0.90;;;;;;;;;;5008672;28;20061;-74
2022/10/23 04:56:42;;;;;;;2.08;1.10;;;;;;;;;;4991825;28;20053;-74
2022/10/23 04:59:18;;;;;;;1.17;0.45;;;;;;;;;;4991420;28;20049;-72
2022/10/23 05:01:49;;;;;;;1.55;0.80;;;;;;;;;;4990742;28;20061;-73
2022/10/23 05:04:19;;;;;;;1.13;0.85;;;;;;;;;;5007453;28;20065;-73
2022/10/23 05:07:08;;;;;;;0.93;0.70;;;;;;;;;;4974364;28;20064;-75
2022/10/23 05:10:03;;;;;;;1.38;1.20;;;;;;;;;;4991702;28;20079;-74
2022/10/23 05:12:47;;;;;;;1.88;0.55;;;;;;;;;;4992134;28;20623;-73
2022/10/23 05:15:18;;;;;;;1.92;0.70;;;;;;;;;;5009099;28;21107;-72
2022/10/23 05:17:52;;;;;;;1.00;0.88;;;;;;;;;;4991595;28;20057;-74
2022/10/23 05:20:29;;;;;;;0.63;0.63;;;;;;;;;;4991491;28;20133;-74
2022/10/23 05:23:02;;;;;;;2.28;0.85;;;;;;;;;;4991488;28;20519;-73
2022/10/23 05:25:32;;;;;;;4.72;0.90;;;;;;;;;;4990858;28;20072;-75
2022/10/23 05:28:12;;;;;;;2.55;0.63;;;;;;;;;;4991524;28;20818;-73
2022/10/23 05:30:43;;;;;;;1.08;0.80;;;;;;;;;;4991019;28;20061;-73
2022/10/23 05:33:13;;;;;;;3.92;1.17;;;;;;;;;;4991024;28;20536;-75
2022/10/23 05:35:44;;;;;;;1.65;0.73;;;;;;;;;;4991895;28;20417;-74
2022/10/23 05:38:16;;;;;;;4.15;0.95;;;;;;;;;;4990556;28;20046;-74
2022/10/23 05:40:47;;;;;;;4.95;0.90;;;;;;;;;;4990616;28;20429;-74
2022/10/23 05:43:19;;;;;;;3.95;0.70;;;;;;;;;;4989943;28;20053;-73
2022/10/23 05:45:58;;;;;;;1.30;0.80;;;;;;;;;;4991077;28;20050;-72
2022/10/23 05:48:43;;;;;;;0.77;0.60;;;;;;;;;;5008317;28;20061;-74
2022/10/23 05:51:21;;;;;;;4.53;0.65;;;;;;;;;;5013022;28;20049;-73
2022/10/23 05:54:09;;;;;;;1.40;0.77;;;;;;;;;;4990829;28;20073;-74
2022/10/23 05:57:08;;;;;;;2.25;0.93;;;;;;;;;;4999197;28;20054;-74
2022/10/23 05:59:48;;;;;;;3.05;1.05;;;;;;;;;;4990681;28;20068;-73
2022/10/23 06:02:38;;;;;;;4.03;1.00;;;;;;;;;;5001146;28;20065;-73
2022/10/23 06:05:29;;;;;;;2.45;0.90;;;;;;;;;;4990747;28;20520;-75
2022/10/23 06:08:19;;;;;;;5.88;0.88;;;;;;;;;;4977285;28;20066;-73
2022/10/23 06:10:50;;;;;;;3.20;0.77;;;;;;;;;;4990437;28;20049;-74
2022/10/23 06:13:21;;;;;;;1.42;0.75;;;;;;;;;;4990360;28;20053;-72
2022/10/23 06:15:51;;;;;;;0.75;0.75;;;;;;;;;;4989561;28;20060;-73
2022/10/23 06:18:24;;;;;;;1.83;0.82;;;;;;;;;;4990000;28;20050;-72
2022/10/23 06:21:07;;;;;;;1.17;0.60;;;;;;;;;;4990085;28;20072;-73
2022/10/23 06:23:37;;;;;;;0.60;0.50;;;;;;;;;;4990251;28;20053;-73
2022/10/23 06:26:25;;;;;;;2.78;1.10;;;;;;;;;;4990220;28;20057;-74
2022/10/23 06:29:00;;;;;;;1.85;0.85;;;;;;;;;;4990312;28;20046;-72
2022/10/23 06:31:31;;;;;;;0.70;0.68;;;;;;;;;;4990321;28;20532;-73
2022/10/23 06:34:02;;;;;;;0.98;0.88;;;;;;;;;;4989983;28;20058;-74
2022/10/23 06:36:33;;;;;;;5.03;0.82;;;;;;;;;;4989443;28;20064;-73
2022/10/23 06:39:27;;;;;;;1.67;0.68;;;;;;;;;;5007225;28;20068;-74
2022/10/23 06:42:18;;;;;;;1.70;0.77;;;;;;;;;;5008914;28;20513;-73
2022/10/23 06:44:54;;;;;;;1.20;0.73;;;;;;;;;;5007299;28;20421;-74
2022/10/23 06:47:50;;;;;;;1.83;0.82;;;;;;;;;;5007404;28;20054;-73
2022/10/23 06:50:29;;;;;;;1.60;0.80;;;;;;;;;;5009613;28;20060;-74
2022/10/23 06:53:05;;;;;;;0.93;0.82;;;;;;;;;;4989626;28;20165;-73
2022/10/23 06:55:39;;;;;;;5.35;1.10;;;;;;;;;;4989588;28;20073;-73
2022/10/23 06:58:10;;;;;;;0.60;0.50;;;;;;;;;;4989543;28;20057;-73
2022/10/23 07:01:03;;;;;;;1.02;0.75;;;;;;;;;;5005872;28;20057;-75
2022/10/23 07:03:35;;;;;;;0.65;0.65;;;;;;;;;;4989316;28;20060;-73
2022/10/23 07:06:09;;;;;;;7.32;1.10;;;;;;;;;;4990151;28;20583;-73
2022/10/23 07:08:40;;;;;;;0.52;0.52;;;;;;;;;;5007256;28;20057;-74
2022/10/23 07:11:30;;;;;;;1.35;0.80;;;;;;;;;;4985581;28;20061;-73
2022/10/23 07:14:01;;;;;;;1.10;0.90;;;;;;;;;;4988828;28;20084;-74
2022/10/23 07:16:31;;;;;;;3.30;1.00;;;;;;;;;;5006947;28;20064;-74
2022/10/23 07:19:01;;;;;;;3.50;1.33;;;;;;;;;;5006601;28;20050;-73
2022/10/23 07:21:51;;;;;;;2.42;1.50;;;;;;;;;;5005981;28;20058;-73
2022/10/23 07:24:53;;;;;;;3.05;1.17;;;;;;;;;;4973239;28;20057;-76
2022/10/23 07:27:28;;;;;;;7.97;1.35;;;;;;;;;;4989229;28;20056;-75
2022/10/23 07:30:01;;;;;;;4.47;1.55;;;;;;;;;;4988978;28;20100;-74
2022/10/23 07:32:38;;;;;;;2.42;1.35;;;;;;;;;;4990508;28;20057;-73
2022/10/23 07:35:28;;;;;;;2.42;1.38;;;;;;;;;;5010587;28;20046;-73
2022/10/23 07:38:12;;;;;;;2.17;1.00;;;;;;;;;;4989784;28;20045;-76
2022/10/23 07:40:47;;;;;;;2.28;1.10;;;;;;;;;;4988684;28;20053;-75
2022/10/23 07:43:19;;;;;;;3.00;0.90;;;;;;;;;;4989139;28;20508;-74
2022/10/23 07:45:51;;;;;;;4.55;1.42;;;;;;;;;;4988243;28;20045;-74
2022/10/23 07:48:31;;;;;;;4.22;1.48;;;;;;;;;;5006190;28;20061;-75
2022/10/23 07:51:07;;;;;;;3.70;1.33;;;;;;;;;;4988579;28;20054;-73
2022/10/23 07:53:42;;;;;;;1.58;0.88;;;;;;;;;;4988470;28;20513;-74
2022/10/23 07:56:30;;;;;;;2.55;1.42;;;;;;;;;;4988262;28;20057;-74
2022/10/23 07:59:18;;;;;;;1.15;0.90;;;;;;;;;;5008891;28;20628;-75
2022/10/23 08:01:55;;;;;;;4.97;1.50;;;;;;;;;;4988253;28;20065;-75
2022/10/23 08:04:31;;;;;;;1.08;0.68;;;;;;;;;;4989489;28;20440;-74
2022/10/23 08:07:10;;;;;;;2.15;1.20;;;;;;;;;;4992788;28;20057;-73
2022/10/23 08:09:43;;;;;;;3.90;1.00;;;;;;;;;;4992982;28;20428;-73
2022/10/23 08:12:13;;;;;;;5.28;1.00;;;;;;;;;;4992755;28;20053;-73
2022/10/23 08:14:43;;;;;;;1.23;1.13;;;;;;;;;;5008754;28;20497;-73
2022/10/23 08:17:13;;;;;;;1.92;1.30;;;;;;;;;;4992071;28;20046;-73
2022/10/23 08:19:58;;;;;;;2.08;0.80;;;;;;;;;;4978436;28;20525;-74
2022/10/23 08:22:36;;;;;;;4.28;1.08;;;;;;;;;;4992360;28;20552;-74
2022/10/23 08:25:06;;;;;;;4.50;1.20;;;;;;;;;;4992088;28;20058;-73
2022/10/23 08:27:37;;;;;;;2.15;1.10;;;;;;;;;;4992692;28;20421;-73
2022/10/23 08:30:08;;;;;;;4.88;1.45;;;;;;;;;;4992815;28;20512;-75
2022/10/23 08:32:39;;;;;;;2.55;1.10;;;;;;;;;;4992478;28;20058;-73
2022/10/23 08:35:09;;;;;;;1.33;1.15;;;;;;;;;;4992228;28;20049;-74
2022/10/23 08:37:39;;;;;;;2.20;1.13;;;;;;;;;;5008608;28;20497;-74
2022/10/23 08:40:16;;;;;;;1.33;1.05;;;;;;;;;;4992181;28;20513;-74
2022/10/23 08:43:10;;;;;;;2.75;0.95;;;;;;;;;;5011110;28;20062;-75
2022/10/23 08:46:15;;;;;;;1.30;1.20;;;;;;;;;;4991742;28;20069;-73
2022/10/23 08:49:33;;;;;;;;;;;;;;;;;;4976623;28;20054;-75
2022/10/23 08:52:13;;;;;;;1.05;0.65;;;;;;;;;;4991365;28;19925;-73
2022/10/23 08:54:54;;;;;;;1.05;0.88;;;;;;;;;;4993133;28;20046;-74
2022/10/23 08:57:32;;;;;;;1.30;0.75;;;;;;;;;;4992063;28;20046;-75
2022/10/23 09:00:07;;;;;;;4.05;0.93;;;;;;;;;;5009386;28;20045;-75
2022/10/23 09:02:44;;;;;;;3.13;1.20;;;;;;;;;;5009372;28;20049;-75
2022/10/23 09:05:35;;;;;;;0.95;0.80;;;;;;;;;;5009261;28;20050;-74
2022/10/23 09:08:21;;;;;;;0.98;0.70;;;;;;;;;;5009230;28;20046;-74
2022/10/23 09:11:21;;;;;;;0.95;0.90;;;;;;;;;;5008767;28;20052;-74
2022/10/23 09:14:01;;;;;;;1.42;0.77;;;;;;;;;;5009379;28;20052;-75
2022/10/23 09:16:54;;;;;;;2.25;1.10;;;;;;;;;;5007768;28;20374;-74
2022/10/23 09:19:26;;;;;;;2.13;1.00;;;;;;;;;;4993517;28;20050;-73
2022/10/23 09:21:57;;;;;;;2.30;1.02;;;;;;;;;;5008677;28;20046;-73
2022/10/23 09:24:32;;;;;;;1.17;0.88;;;;;;;;;;5008047;28;20057;-75
2022/10/23 09:27:02;;;;;;;2.92;0.93;;;;;;;;;;5008676;28;20045;-75
2022/10/23 09:29:37;;;;;;;1.83;1.00;;;;;;;;;;5008440;28;20046;-73
2022/10/23 09:32:07;;;;;;;1.40;1.10;;;;;;;;;;5008764;28;20042;-74
2022/10/23 09:34:37;;;;;;;2.78;0.80;;;;;;;;;;5008788;28;20167;-74
2022/10/23 09:37:26;;;;;;;;;;;;;;;;;;5008793;28;20052;-75
2022/10/23 09:40:17;;;;;;;0.60;0.60;;;;;;;;;;5008594;28;19921;-74
2022/10/23 09:42:52;;;;;;;1.95;0.65;;;;;;;;;;4991988;28;20050;-74
2022/10/23 09:45:34;;;;;;;1.27;0.80;;;;;;;;;;5008802;28;20045;-73
2022/10/23 09:48:16;;;;;;;2.80;1.10;;;;;;;;;;4990545;28;20038;-74
2022/10/23 09:50:56;;;;;;;1.40;0.77;;;;;;;;;;5008603;28;20069;-73
2022/10/23 09:53:39;;;;;;;3.63;1.02;;;;;;;;;;5008701;28;20053;-75
2022/10/23 09:56:35;;;;;;;2.97;1.02;;;;;;;;;;5006978;28;20501;-74
2022/10/23 09:59:22;;;;;;;6.07;1.20;;;;;;;;;;5006799;28;20053;-75
2022/10/23 10:01:59;;;;;;;2.15;1.13;;;;;;;;;;5008050;28;20532;-74
2022/10/23 10:04:59;;;;;;;;;;;;;;;;;;5003360;28;20050;-74
2022/10/23 10:07:30;;;;;;;1.63;0.90;;;;;;;;;;5008051;28;19925;-75
2022/10/23 10:10:13;;;;;;;2.17;1.20;;;;;;;;;;5006974;28;20049;-74
2022/10/23 10:12:51;;;;;;;4.30;1.10;;;;;;;;;;5007936;28;20045;-73
2022/10/23 10:15:26;;;;;;;1.40;1.10;;;;;;;;;;4990069;28;20061;-72
2022/10/23 10:18:07;;;;;;;3.85;1.02;;;;;;;;;;5007842;28;20053;-74
2022/10/23 10:20:58;;;;;;;2.55;0.95;;;;;;;;;;5007906;28;20052;-74
2022/10/23 10:24:11;;;;;;;4.70;1.23;;;;;;;;;;5007452;28;20513;-74
2022/10/23 10:26:50;;;;;;;2.30;1.10;;;;;;;;;;5008078;28;20399;-73
2022/10/23 10:29:29;;;;;;;2.10;0.88;;;;;;;;;;5007284;28;20619;-74
2022/10/23 10:32:05;;;;;;;3.10;0.80;;;;;;;;;;5007637;28;20049;-74
2022/10/23 10:34:47;;;;;;;1.38;0.82;;;;;;;;;;5007460;28;20061;-74
2022/10/23 10:37:42;;;;;;;2.42;1.10;;;;;;;;;;5007942;28;20424;-74
2022/10/23 10:40:29;;;;;;;;;;;;;;;;;;4981398;28;20058;-73
2022/10/23 10:42:58;;;;;;;6.53;1.02;;;;;;;;;;5007287;28;19932;-74
2022/10/23 10:45:40;;;;;;;3.38;1.33;;;;;;;;;;4990052;28;20550;-74
2022/10/23 10:48:29;;;;;;;5.57;1.60;;;;;;;;;;5007438;28;20050;-74
2022/10/23 10:51:40;;;;;;;3.60;1.50;;;;;;;;;;4987913;28;20058;-75
2022/10/23 10:54:17;;;;;;;2.17;1.88;;;;;;;;;;5007664;28;20050;-73
2022/10/23 10:56:47;;;;;;;3.10;1.55;;;;;;;;;;5007123;28;20056;-75
2022/10/23 10:59:22;;;;;;;4.25;2.15;;;;;;;;;;5007160;28;20052;-74
2022/10/23 11:02:12;;;;;;;3.70;2.33;;;;;;;;;;5006935;28;20049;-76
2022/10/23 11:04:54;;;;;;;8.13;2.60;;;;;;;;;;5006651;28;20052;-74
2022/10/23 11:07:33;;;;;;;4.38;2.92;;;;;;;;;;4989617;28;20053;-74
2022/10/23 11:10:15;;;;;;;6.05;3.10;;;;;;;;;;5006808;28;20069;-75
2022/10/23 11:12:46;;;;;;;;;;;;;;;;;;5007885;28;20049;-73
2022/10/23 11:15:20;;;;;;;6.10;2.78;;;;;;;;;;4989875;28;19944;-74
2022/10/23 11:17:58;;;;;;;6.78;2.72;;;;;;;;;;5006492;28;20042;-74
2022/10/23 11:20:51;;;;;;;7.38;3.03;;;;;;;;;;5007179;28;20394;-75
2022/10/23 11:23:40;;;;;;;6.90;3.30;;;;;;;;;;5006929;28;20053;-74
2022/10/23 11:26:25;;;;;;;6.53;3.10;;;;;;;;;;5006342;28;20050;-74
2022/10/23 11:29:31;;;;;;;5.93;3.35;;;;;;;;;;5006982;28;20050;-75
2022/10/23 11:32:07;;;;;;;6.07;3.15;;;;;;;;;;5006523;28;20367;-74
2022/10/23 11:35:14;;;;;;;5.15;2.80;;;;;;;;;;5006317;28;20054;-74
2022/10/23 11:37:44;;;;;;;7.93;3.25;;;;;;;;;;5006333;28;20049;-74
2022/10/23 11:40:24;;;;;;;4.88;2.53;;;;;;;;;;5006234;28;20061;-74
2022/10/23 11:42:54;;;;;;;6.40;2.40;;;;;;;;;;5006831;28;20042;-73
2022/10/23 11:45:36;;;;;;;4.80;2.53;;;;;;;;;;5006664;28;20061;-74
2022/10/23 11:48:37;;;;;;;4.20;2.33;;;;;;;;;;5006673;28;20413;-75
2022/10/23 11:51:35;;;;;;;5.45;2.50;;;;;;;;;;5006610;28;20046;-74
2022/10/23 11:54:12;;;;;;;2.67;1.67;;;;;;;;;;5005805;28;20046;-76
2022/10/23 11:57:04;;;;;;;3.50;2.15;;;;;;;;;;5006185;28;20057;-75
2022/10/23 11:59:45;;;;;;;5.15;2.53;;;;;;;;;;5006298;28;20046;-74
2022/10/23 12:02:41;;;;;;;4.95;3.00;;;;;;;;;;5006632;28;20054;-75
2022/10/23 12:05:36;;;;;;;3.78;2.13;;;;;;;;;;4988776;28;20057;-75
2022/10/23 12:08:21;;;;;;;7.13;2.70;;;;;;;;;;5006648;28;20050;-75
2022/10/23 12:10:54;;;;;;;6.93;2.85;;;;;;;;;;5006513;28;20397;-74
2022/10/23 12:13:31;;;;;;;5.50;2.90;;;;;;;;;;5007025;28;20424;-73
2022/10/23 12:16:03;;;;;;;6.47;2.70;;;;;;;;;;4988293;28;20417;-75
2022/10/23 12:18:47;;;;;;;6.03;3.10;;;;;;;;;;5006070;28;20054;-75
2022/10/23 12:21:27;;;;;;;4.38;2.55;;;;;;;;;;5006138;28;20421;-74
2022/10/23 12:24:11;;;;;;;7.05;2.60;;;;;;;;;;5006328;28;20046;-73
2022/10/23 12:26:53;;;;;;;5.28;2.53;;;;;;;;;;5005100;28;20506;-74
2022/10/23 12:29:39;;;;;;;5.15;2.40;;;;;;;;;;5005848;28;20038;-73
2022/10/23 12:32:20;;;;;;;4.20;2.33;;;;;;;;;;5005949;28;20063;-73
2022/10/23 12:34:58;;;;;;;5.25;2.30;;;;;;;;;;5006190;28;20048;-73
2022/10/23 12:37:57;;;;;;;4.88;2.67;;;;;;;;;;4988349;28;20069;-73
2022/10/23 12:40:29;;;;;;;4.28;2.58;;;;;;;;;;5011360;28;20521;-72
2022/10/23 12:43:00;;;;;;;3.80;2.00;;;;;;;;;;5004870;28;20532;-77
2022/10/23 12:45:39;;;;;;;4.60;2.35;;;;;;;;;;5004994;28;20054;-73
2022/10/23 12:48:20;;;;;;;4.55;2.17;;;;;;;;;;5005929;28;20058;-74
2022/10/23 12:50:54;;;;;;;2.90;2.30;;;;;;;;;;5006120;28;20849;-75
2022/10/23 12:53:24;;;;;;;5.80;2.70;;;;;;;;;;5007842;28;20064;-74
2022/10/23 12:56:04;;;;;;;5.80;2.53;;;;;;;;;;5009881;28;20046;-73
2022/10/23 12:58:36;;;;;;;4.03;2.60;;;;;;;;;;5009668;28;20045;-76
2022/10/23 13:01:20;;;;;;;6.18;2.53;;;;;;;;;;5007066;28;20068;-76
2022/10/23 13:03:55;;;;;;;5.15;3.10;;;;;;;;;;5009044;28;20050;-73
2022/10/23 13:06:26;;;;;;;7.55;3.47;;;;;;;;;;5009606;28;20053;-74
2022/10/23 13:08:57;;;;;;;8.82;5.70;;;;;;;;;;5009072;28;20049;-73
2022/10/23 13:11:36;;;;;;;3.95;2.70;;;;;;;;;;4991200;28;20427;-76
2022/10/23 13:14:13;;;;;;;6.57;3.10;;;;;;;;;;4990963;28;20074;-73
2022/10/23 13:16:43;;;;;;;5.00;3.33;;;;;;;;;;5009683;28;20603;-74
2022/10/23 13:19:26;;;;;;;8.32;4.70;;;;;;;;;;5008936;28;20054;-74
2022/10/23 13:21:58;;;;;;;6.80;4.70;;;;;;;;;;5009023;28;20054;-73
2022/10/23 13:24:29;;;;;;;11.45;5.78;;;;;;;;;;5009059;28;20049;-73
2022/10/23 13:27:00;;;;;;;10.57;5.18;;;;;;;;;;4991708;28;20413;-77
2022/10/23 13:29:34;;;;;;;8.15;5.25;;;;;;;;;;5008866;28;20042;-73
2022/10/23 13:32:11;;;;;;;7.18;5.20;;;;;;;;;;5008460;28;20053;-77
2022/10/23 13:34:51;;;;;;;10.40;4.72;;;;;;;;;;5008918;28;20042;-78
2022/10/23 13:37:38;;;;;;;6.65;4.07;;;;;;;;;;5008138;28;20418;-74
2022/10/23 13:40:22;;;;;;;5.63;4.07;;;;;;;;;;5008202;28;20065;-74
2022/10/23 13:42:56;;;;;;;4.75;3.45;;;;;;;;;;5008771;28;20060;-74
2022/10/23 13:45:26;;;;;;;4.80;3.03;;;;;;;;;;5008774;28;20053;-75
2022/10/23 13:47:56;;;;;;;5.97;3.22;;;;;;;;;;5007839;28;20050;-74
2022/10/23 13:50:26;;;;;;;7.28;3.22;;;;;;;;;;5008603;28;20046;-75
2022/10/23 13:52:57;;;;;;;5.82;3.35;;;;;;;;;;5008272;28;20060;-75
2022/10/23 13:55:27;;;;;;;5.82;3.38;;;;;;;;;;5007820;28;20061;-74
2022/10/23 13:57:57;;;;;;;4.18;3.30;;;;;;;;;;4990433;28;20071;-73
2022/10/23 14:00:26;;;;;;;5.55;3.40;;;;;;;;;;5008217;28;20553;-74
2022/10/23 14:02:58;;;;;;;5.38;3.92;;;;;;;;;;5007251;28;20049;-75
2022/10/23 14:05:29;;;;;;;14.35;4.18;;;;;;;;;;5008136;28;20508;-75
2022/10/23 14:07:59;;;;;;;6.78;3.13;;;;;;;;;;5008179;28;20046;-73
2022/10/23 14:10:32;;;;;;;4.30;2.55;;;;;;;;;;5006951;28;20521;-74
2022/10/23 14:13:05;;;;;;;7.07;2.90;;;;;;;;;;5009032;28;20113;-74
2022/10/23 14:15:40;;;;;;;3.92;2.45;;;;;;;;;;5005521;28;20054;-75
2022/10/23 14:18:14;;;;;;;4.63;2.40;;;;;;;;;;4989679;28;20528;-75
2022/10/23 14:20:44;;;;;;;3.10;1.90;;;;;;;;;;5006745;28;20049;-75
2022/10/23 14:23:14;;;;;;;2.75;2.10;;;;;;;;;;5005599;28;20505;-74
2022/10/23 14:25:44;;;;;;;4.28;2.42;;;;;;;;;;5006744;28;20073;-73
2022/10/23 14:28:14;;;;;;;5.80;2.83;;;;;;;;;;4989558;28;20068;-73
2022/10/23 14:30:50;;;;;;;4.18;2.45;;;;;;;;;;5007191;28;20054;-77
2022/10/23 14:33:20;;;;;;;4.63;2.63;;;;;;;;;;5007117;28;20048;-74
2022/10/23 14:35:51;;;;;;;4.00;2.60;;;;;;;;;;4989843;28;20065;-74
2022/10/23 14:38:21;;;;;;;6.72;3.17;;;;;;;;;;5007524;28;20050;-74
2022/10/23 14:40:50;;;;;;;6.75;2.53;;;;;;;;;;5007115;28;20066;-74
2022/10/23 14:43:21;;;;;;;2.85;2.17;;;;;;;;;;5007706;28;20060;-74
2022/10/23 14:45:52;;;;;;;4.25;2.95;;;;;;;;;;5009793;28;20057;-74
2022/10/23 14:48:22;;;;;;;5.18;3.28;;;;;;;;;;5012807;28;20049;-74
2022/10/23 14:50:52;;;;;;;2.75;2.17;;;;;;;;;;5006923;28;20049;-74
2022/10/23 14:53:23;;;;;;;3.78;2.60;;;;;;;;;;5007182;28;20042;-76
2022/10/23 14:56:00;;;;;;;5.50;2.65;;;;;;;;;;5007177;28;20057;-79
2022/10/23 14:58:30;;;;;;;2.50;1.98;;;;;;;;;;5008735;28;20042;-74
2022/10/23 15:01:00;;;;;;;2.55;1.83;;;;;;;;;;5007184;28;20053;-75
2022/10/23 15:03:31;;;;;;;3.13;1.90;;;;;;;;;;5007100;28;20046;-74
2022/10/23 15:06:01;;;;;;;4.22;2.47;;;;;;;;;;5006710;28;20049;-74
2022/10/23 15:08:31;;;;;;;3.00;1.70;;;;;;;;;;5006550;28;20049;-74
2022/10/23 15:11:03;;;;;;;2.28;1.50;;;;;;;;;;5006690;28;20054;-75
2022/10/23 15:13:40;;;;;;;3.55;1.88;;;;;;;;;;5006470;28;20050;-76
2022/10/23 15:16:11;;;;;;;2.50;1.70;;;;;;;;;;5006892;28;20076;-75
2022/10/23 15:18:41;;;;;;;3.60;1.60;;;;;;;;;;5006902;28;20046;-77
2022/10/23 15:21:11;;;;;;;2.67;1.55;;;;;;;;;;5006886;28;20072;-75
2022/10/23 15:23:43;;;;;;;5.28;1.92;;;;;;;;;;5006848;28;20054;-75
2022/10/23 15:26:19;;;;;;;7.45;2.33;;;;;;;;;;5006304;28;20042;-75
2022/10/23 15:28:57;;;;;;;4.20;1.98;;;;;;;;;;5010776;28;20057;-76
2022/10/23 15:31:39;;;;;;;3.45;1.90;;;;;;;;;;5009910;28;20052;-75
2022/10/23 15:34:15;;;;;;;2.10;1.42;;;;;;;;;;5006398;28;20057;-73
2022/10/23 15:36:47;;;;;;;4.68;1.92;;;;;;;;;;5006704;28;20058;-74
2022/10/23 15:39:20;;;;;;;2.50;1.55;;;;;;;;;;5006137;28;20050;-76
2022/10/23 15:41:54;;;;;;;2.17;1.38;;;;;;;;;;5005088;28;20391;-75
2022/10/23 15:44:26;;;;;;;2.00;1.38;;;;;;;;;;5006451;28;20041;-74
2022/10/23 15:46:56;;;;;;;2.72;1.13;;;;;;;;;;5005911;28;20041;-74
2022/10/23 15:49:31;;;;;;;2.55;1.13;;;;;;;;;;5008494;28;20054;-76